Azul, Argentina
Current Conditions -  °F | °C
As of 2:00 PM on Friday 31 Oct 2014 (Local Time) from SAZM Reporting Station
Broken Clouds Broken Clouds  
Wind Chill: 59°   Ceiling: 10000
Heat Index: 59°   Visibility: 6mi
Dew Point: 34°   Wind: 9mph
Humidity: 39%   Direction: 140°SE
Pressure: 30.09"   Gusts: NA
Location:  36.78°S, 59.87°W
Report Text: SAZM 311700Z 14008KT 9999 FEW025 BKN10015/01 Q1019
Loading
Personal Weather Stations






























Interactive Weather Map
Tropical Storm Tracking
New forecast layout! Learn more

10-Day Weather Forecast

Advertisements
Track Severe Weather on mobile